Time;durP1;ratioP1;P1;durP2;ratioP2;P2;SDS_P1;SDS_P2;PMS_P1;PMS_P2;Temp;Humidity;BMP_temperature;BMP_pressure;BME280_temperature;BME280_humidity;BME280_pressure;Samples;Min_cycle;Max_cycle;Signal;HPM_P1;HPM_P2
2023/07/11 00:01:44;;;;;;;0.00;0.00;;;20.00;99.90;;;;;;5140910;27;20031;-69
2023/07/11 00:04:10;;;;;;;0.00;0.00;;;19.90;99.90;;;;;;5149006;27;20046;-69
2023/07/11 00:06:35;;;;;;;0.00;0.00;;;19.90;99.90;;;;;;5144245;27;20092;-69
2023/07/11 00:09:01;;;;;;;0.25;0.25;;;19.70;99.90;;;;;;5140723;27;20042;-69
2023/07/11 00:11:26;;;;;;;0.00;0.00;;;19.70;99.90;;;;;;5148525;27;20039;-69
2023/07/11 00:13:53;;;;;;;0.32;0.10;;;19.70;99.90;;;;;;5147843;27;20095;-69
2023/07/11 00:16:19;;;;;;;0.00;0.00;;;19.60;99.90;;;;;;5143147;27;20050;-69
2023/07/11 00:18:45;;;;;;;0.00;0.00;;;19.60;99.90;;;;;;5147405;27;20039;-69
2023/07/11 00:21:11;;;;;;;1.15;0.25;;;19.60;99.90;;;;;;5147329;27;20031;-69
2023/07/11 00:23:37;;;;;;;0.30;0.30;;;19.60;99.90;;;;;;5137323;27;20039;-68
2023/07/11 00:26:03;;;;;;;0.05;0.05;;;19.60;99.90;;;;;;5131685;27;20073;-69
2023/07/11 00:28:29;;;;;;;0.00;0.00;;;19.50;99.90;;;;;;5128850;27;20470;-69
2023/07/11 00:30:54;;;;;;;0.00;0.00;;;19.60;99.90;;;;;;5144916;27;20096;-69
2023/07/11 00:33:20;;;;;;;0.28;0.28;;;19.60;99.90;;;;;;5143322;27;20059;-69
2023/07/11 00:35:49;;;;;;;0.00;0.00;;;19.60;99.90;;;;;;5141613;27;20425;-69
2023/07/11 00:38:15;;;;;;;0.00;0.00;;;19.60;99.90;;;;;;5143333;27;20535;-69
2023/07/11 00:40:45;;;;;;;0.00;0.00;;;19.60;99.90;;;;;;5150608;27;20147;-69
2023/07/11 00:43:13;;;;;;;0.00;0.00;;;19.70;99.90;;;;;;5129487;27;20111;-69
2023/07/11 00:46:17;;;;;;;0.30;0.17;;;19.70;99.90;;;;;;5120737;27;20046;-68
2023/07/11 00:48:50;;;;;;;0.00;0.00;;;19.80;99.90;;;;;;5146948;27;20125;-69
2023/07/11 00:51:37;;;;;;;0.40;0.40;;;19.80;99.90;;;;;;5146906;27;20100;-69
2023/07/11 00:54:06;;;;;;;0.00;0.00;;;19.80;99.90;;;;;;5118271;27;20055;-69
2023/07/11 00:56:36;;;;;;;0.00;0.00;;;19.90;99.90;;;;;;5143336;27;20452;-69
2023/07/11 00:59:02;;;;;;;0.00;0.00;;;19.90;99.90;;;;;;5147537;27;20043;-69
2023/07/11 01:01:28;;;;;;;0.00;0.00;;;19.90;99.90;;;;;;5150200;27;20030;-69
2023/07/11 01:03:55;;;;;;;0.00;0.00;;;19.90;99.90;;;;;;5130786;27;20501;-69
2023/07/11 01:06:27;;;;;;;0.00;0.00;;;20.00;99.90;;;;;;5140165;27;20061;-69
2023/07/11 01:08:55;;;;;;;0.00;0.00;;;19.90;99.90;;;;;;5147356;27;20698;-69
2023/07/11 01:11:23;;;;;;;0.00;0.00;;;19.90;99.90;;;;;;5145366;27;20320;-69
2023/07/11 01:13:49;;;;;;;0.00;0.00;;;19.90;99.90;;;;;;5147137;27;20046;-69
2023/07/11 01:16:14;;;;;;;0.15;0.15;;;19.90;99.90;;;;;;5144401;27;20039;-69
2023/07/11 01:18:40;;;;;;;0.00;0.00;;;19.90;99.90;;;;;;5145780;27;20038;-69
2023/07/11 01:21:08;;;;;;;0.00;0.00;;;19.90;99.90;;;;;;5139601;27;20054;-69
2023/07/11 01:23:34;;;;;;;0.00;0.00;;;19.80;99.90;;;;;;5144581;27;20082;-69
2023/07/11 01:26:05;;;;;;;0.00;0.00;;;19.80;99.90;;;;;;5146802;27;20054;-69
2023/07/11 01:28:31;;;;;;;0.10;0.00;;;19.70;99.90;;;;;;5147023;27;20673;-69
2023/07/11 01:30:56;;;;;;;0.40;0.40;;;19.70;99.90;;;;;;5143467;27;20049;-69
2023/07/11 01:33:25;;;;;;;0.00;0.00;;;19.60;99.90;;;;;;5147281;27;20055;-69
2023/07/11 01:35:54;;;;;;;0.00;0.00;;;19.60;99.90;;;;;;5143184;27;20082;-69
2023/07/11 01:38:22;;;;;;;0.20;0.20;;;19.60;99.90;;;;;;5149156;27;20062;-68
2023/07/11 01:40:48;;;;;;;2.60;0.35;;;19.60;99.90;;;;;;5139810;27;20043;-69
2023/07/11 01:43:16;;;;;;;0.00;0.00;;;19.50;99.90;;;;;;5143203;27;20042;-69
2023/07/11 01:45:42;;;;;;;0.00;0.00;;;19.50;99.90;;;;;;5141999;27;20071;-69
2023/07/11 01:48:07;;;;;;;0.00;0.00;;;19.50;99.90;;;;;;5150067;27;20732;-69
2023/07/11 01:50:33;;;;;;;0.00;0.00;;;19.50;99.90;;;;;;5137534;27;20058;-69
2023/07/11 01:52:59;;;;;;;0.00;0.00;;;19.50;99.90;;;;;;5130024;27;20048;-69
2023/07/11 01:55:25;;;;;;;0.00;0.00;;;19.50;99.90;;;;;;5139949;27;20043;-68
2023/07/11 01:57:51;;;;;;;0.20;0.20;;;19.50;99.90;;;;;;5144514;27;20114;-69
2023/07/11 02:00:17;;;;;;;0.00;0.00;;;19.40;99.90;;;;;;5141663;27;20050;-69
2023/07/11 02:02:42;;;;;;;0.05;0.05;;;19.50;99.90;;;;;;5144911;27;20046;-68
2023/07/11 02:05:08;;;;;;;0.00;0.00;;;19.50;99.90;;;;;;5148617;27;20466;-69
2023/07/11 02:07:34;;;;;;;1.00;0.77;;;19.40;99.90;;;;;;5136889;27;20038;-69
2023/07/11 02:09:59;;;;;;;0.00;0.00;;;19.40;99.90;;;;;;5144248;27;20043;-69
2023/07/11 02:12:25;;;;;;;0.03;0.03;;;19.30;99.90;;;;;;5144478;27;20047;-69
2023/07/11 02:14:51;;;;;;;0.35;0.35;;;19.30;99.90;;;;;;5147049;27;20039;-69
2023/07/11 02:17:16;;;;;;;3.03;0.28;;;19.30;99.90;;;;;;5142666;27;20054;-69
2023/07/11 02:19:46;;;;;;;0.00;0.00;;;19.30;99.90;;;;;;5129150;27;20158;-69
2023/07/11 02:22:12;;;;;;;0.40;0.40;;;19.30;99.90;;;;;;5145370;27;20121;-69
2023/07/11 02:24:41;;;;;;;0.57;0.35;;;19.30;99.90;;;;;;5148331;27;20046;-69
2023/07/11 02:27:07;;;;;;;0.00;0.00;;;19.30;99.90;;;;;;5127496;27;20072;-69
2023/07/11 02:29:33;;;;;;;0.03;0.00;;;19.30;99.90;;;;;;5146600;27;20505;-69
2023/07/11 02:31:59;;;;;;;0.20;0.20;;;19.30;99.90;;;;;;5140613;27;20150;-69
2023/07/11 02:34:25;;;;;;;0.00;0.00;;;19.30;99.90;;;;;;5149060;27;20039;-68
2023/07/11 02:36:51;;;;;;;0.00;0.00;;;19.30;99.90;;;;;;5148186;27;20480;-68
2023/07/11 02:39:16;;;;;;;0.28;0.20;;;19.40;99.90;;;;;;5137941;27;20047;-69
2023/07/11 02:41:42;;;;;;;0.00;0.00;;;19.40;99.90;;;;;;5127402;27;20053;-69
2023/07/11 02:44:08;;;;;;;0.00;0.00;;;19.30;99.90;;;;;;5138086;27;20039;-69
2023/07/11 02:46:34;;;;;;;0.00;0.00;;;19.30;99.90;;;;;;5142301;27;20042;-69
2023/07/11 02:48:59;;;;;;;0.00;0.00;;;19.30;99.90;;;;;;5153322;27;20046;-69
2023/07/11 02:51:25;;;;;;;3.72;1.98;;;19.20;99.90;;;;;;5147116;27;20109;-69
2023/07/11 02:53:51;;;;;;;0.10;0.10;;;19.20;99.90;;;;;;5151593;27;20031;-69
2023/07/11 02:56:19;;;;;;;0.00;0.00;;;19.20;99.90;;;;;;5148417;27;20054;-69
2023/07/11 02:58:46;;;;;;;0.10;0.10;;;19.20;99.90;;;;;;5145002;27;20474;-69
2023/07/11 03:01:13;;;;;;;0.00;0.00;;;19.20;99.90;;;;;;5148739;27;20424;-69
2023/07/11 03:03:39;;;;;;;0.00;0.00;;;19.20;99.90;;;;;;5153389;27;20045;-69
2023/07/11 03:06:05;;;;;;;0.10;0.10;;;19.20;99.90;;;;;;5151199;27;20035;-69
2023/07/11 03:08:31;;;;;;;0.25;0.22;;;19.20;99.90;;;;;;5145047;27;20045;-69
2023/07/11 03:10:59;;;;;;;0.00;0.00;;;19.20;99.90;;;;;;5146418;27;20034;-68
2023/07/11 03:13:25;;;;;;;0.00;0.00;;;19.20;99.90;;;;;;5145072;27;20050;-69
2023/07/11 03:15:51;;;;;;;0.63;0.45;;;19.10;99.90;;;;;;5146019;27;20042;-69
2023/07/11 03:18:17;;;;;;;0.00;0.00;;;19.20;99.90;;;;;;5138330;27;20104;-69
2023/07/11 03:20:43;;;;;;;0.08;0.08;;;19.20;99.90;;;;;;5147983;27;20039;-69
2023/07/11 03:23:11;;;;;;;0.00;0.00;;;19.20;99.90;;;;;;5151703;27;20049;-68
2023/07/11 03:25:37;;;;;;;0.00;0.00;;;19.10;99.90;;;;;;5146940;27;20043;-69
2023/07/11 03:28:03;;;;;;;0.00;0.00;;;19.20;99.90;;;;;;5126486;27;20495;-69
2023/07/11 03:30:33;;;;;;;0.20;0.20;;;19.20;99.90;;;;;;5151242;27;20171;-69
2023/07/11 03:32:59;;;;;;;0.43;0.38;;;19.20;99.90;;;;;;5143230;27;20100;-69
2023/07/11 03:35:24;;;;;;;0.00;0.00;;;19.20;99.90;;;;;;5151086;27;20034;-69
2023/07/11 03:37:50;;;;;;;0.00;0.00;;;19.20;99.90;;;;;;5146541;27;20035;-69
2023/07/11 03:40:15;;;;;;;0.00;0.00;;;19.20;99.90;;;;;;5150193;27;20115;-69
2023/07/11 03:42:41;;;;;;;0.05;0.05;;;19.10;99.90;;;;;;5150773;27;20129;-68
2023/07/11 03:45:07;;;;;;;0.00;0.00;;;19.20;99.90;;;;;;5145853;27;20066;-69
2023/07/11 03:47:33;;;;;;;0.55;0.50;;;19.20;99.90;;;;;;5132588;27;20134;-69
2023/07/11 03:49:58;;;;;;;0.00;0.00;;;19.20;99.90;;;;;;5150000;27;20131;-69
2023/07/11 03:52:24;;;;;;;0.00;0.00;;;19.20;99.90;;;;;;5151841;27;20062;-69
2023/07/11 03:54:50;;;;;;;0.00;0.00;;;19.20;99.90;;;;;;5140123;27;20038;-69
2023/07/11 03:57:17;;;;;;;0.70;0.22;;;19.10;99.90;;;;;;5143116;27;20123;-69
2023/07/11 03:59:42;;;;;;;0.10;0.10;;;19.10;99.90;;;;;;5149352;27;20045;-68
2023/07/11 04:02:08;;;;;;;0.10;0.10;;;19.10;99.90;;;;;;5143459;27;20421;-69
2023/07/11 04:04:34;;;;;;;0.00;0.00;;;19.10;99.90;;;;;;5150931;27;20031;-69
2023/07/11 04:06:59;;;;;;;0.00;0.00;;;19.10;99.90;;;;;;5143777;27;20088;-69
2023/07/11 04:09:25;;;;;;;0.00;0.00;;;19.10;99.90;;;;;;5145864;27;20103;-69
2023/07/11 04:11:51;;;;;;;0.20;0.20;;;19.10;99.90;;;;;;5150328;27;20603;-69
2023/07/11 04:14:17;;;;;;;0.00;0.00;;;19.10;99.90;;;;;;5133561;27;20053;-69
2023/07/11 04:16:43;;;;;;;0.00;0.00;;;19.00;99.90;;;;;;5122398;27;20068;-69
2023/07/11 04:19:08;;;;;;;0.50;0.10;;;19.00;99.90;;;;;;5144017;27;20046;-69
2023/07/11 04:21:35;;;;;;;0.15;0.15;;;19.00;99.90;;;;;;5151081;27;20645;-69
2023/07/11 04:24:00;;;;;;;0.00;0.00;;;18.90;99.90;;;;;;5142498;27;20042;-69
2023/07/11 04:26:26;;;;;;;0.00;0.00;;;18.90;99.90;;;;;;5129007;27;20038;-68
2023/07/11 04:28:52;;;;;;;0.00;0.00;;;18.90;99.90;;;;;;5150798;27;20031;-69
2023/07/11 04:31:17;;;;;;;1.55;0.57;;;18.90;99.90;;;;;;5130798;27;20054;-68
2023/07/11 04:33:43;;;;;;;0.10;0.10;;;18.80;99.90;;;;;;5140721;27;20072;-69
2023/07/11 04:36:12;;;;;;;0.00;0.00;;;18.80;99.90;;;;;;5144372;27;20058;-69
2023/07/11 04:38:38;;;;;;;0.00;0.00;;;18.70;99.90;;;;;;5148983;27;20027;-68
2023/07/11 04:41:05;;;;;;;0.00;0.00;;;18.80;99.90;;;;;;5144657;27;20509;-69
2023/07/11 04:43:33;;;;;;;0.22;0.22;;;18.80;99.90;;;;;;5143236;27;20070;-68
2023/07/11 04:46:00;;;;;;;0.00;0.00;;;18.80;99.90;;;;;;5143927;27;20035;-69
2023/07/11 04:48:26;;;;;;;0.10;0.10;;;18.80;99.90;;;;;;5147906;27;20045;-68
2023/07/11 04:51:03;;;;;;;0.88;0.32;;;18.90;99.90;;;;;;5146681;27;20635;-68
2023/07/11 04:53:29;;;;;;;0.00;0.00;;;18.90;99.90;;;;;;5145679;27;20051;-68
2023/07/11 04:56:07;;;;;;;0.00;0.00;;;18.90;99.90;;;;;;5142231;27;20039;-69
2023/07/11 04:58:33;;;;;;;0.13;0.13;;;18.90;99.90;;;;;;5125132;27;20043;-69
2023/07/11 05:01:01;;;;;;;0.00;0.00;;;18.90;99.90;;;;;;5146125;27;20031;-68
2023/07/11 05:03:28;;;;;;;0.00;0.00;;;18.90;99.90;;;;;;5142164;27;20043;-68
2023/07/11 05:05:53;;;;;;;0.00;0.00;;;19.00;99.90;;;;;;5149904;27;20041;-69
2023/07/11 05:08:19;;;;;;;2.42;0.85;;;18.90;99.90;;;;;;5124031;27;20113;-68
2023/07/11 05:10:53;;;;;;;0.00;0.00;;;18.90;99.90;;;;;;5143861;27;20117;-68
2023/07/11 05:13:19;;;;;;;2.28;0.45;;;19.00;99.90;;;;;;5140182;27;20043;-68
2023/07/11 05:15:45;;;;;;;0.10;0.10;;;19.00;99.90;;;;;;5129405;27;20046;-68
2023/07/11 05:18:11;;;;;;;0.00;0.00;;;19.10;99.90;;;;;;5141965;27;20050;-68
2023/07/11 05:20:37;;;;;;;0.55;0.55;;;19.10;99.90;;;;;;5141332;27;20082;-68
2023/07/11 05:23:02;;;;;;;0.00;0.00;;;19.20;99.90;;;;;;5132730;27;20045;-68
2023/07/11 05:25:28;;;;;;;0.20;0.20;;;19.10;99.90;;;;;;5144986;27;20043;-68
2023/07/11 05:27:53;;;;;;;0.00;0.00;;;19.10;99.90;;;;;;5141472;27;20446;-69
2023/07/11 05:30:19;;;;;;;0.00;0.00;;;19.20;99.90;;;;;;5147852;27;20038;-68
2023/07/11 05:32:45;;;;;;;0.22;0.20;;;19.20;99.90;;;;;;5136640;27;20489;-68
2023/07/11 05:35:10;;;;;;;0.13;0.13;;;19.30;99.90;;;;;;5142907;27;20047;-68
2023/07/11 05:37:36;;;;;;;0.80;0.73;;;19.40;99.90;;;;;;5130322;27;20077;-69
2023/07/11 05:40:02;;;;;;;0.00;0.00;;;19.40;99.90;;;;;;5144573;27;20034;-68
2023/07/11 05:42:27;;;;;;;0.10;0.10;;;19.40;99.90;;;;;;5145793;27;20046;-68
2023/07/11 05:44:54;;;;;;;1.65;0.38;;;19.40;99.90;;;;;;5135708;27;20030;-68
2023/07/11 05:47:20;;;;;;;1.08;0.30;;;19.50;99.90;;;;;;5147853;27;20031;-68
2023/07/11 05:49:49;;;;;;;0.00;0.00;;;19.60;99.90;;;;;;5139387;27;20042;-69
2023/07/11 05:52:14;;;;;;;0.13;0.13;;;19.70;99.90;;;;;;5143070;27;20222;-68
2023/07/11 05:54:40;;;;;;;0.52;0.22;;;19.70;99.90;;;;;;5141516;27;20464;-68
2023/07/11 05:57:05;;;;;;;0.00;0.00;;;19.60;99.90;;;;;;5141217;27;20043;-68
2023/07/11 05:59:31;;;;;;;0.25;0.17;;;19.70;99.90;;;;;;5140936;27;20389;-68
2023/07/11 06:01:56;;;;;;;0.40;0.40;;;19.70;99.90;;;;;;5137065;27;20394;-68
2023/07/11 06:04:22;;;;;;;0.05;0.05;;;19.80;99.90;;;;;;5125195;27;20034;-68
2023/07/11 06:06:49;;;;;;;0.30;0.30;;;19.90;99.90;;;;;;5147524;27;20074;-68
2023/07/11 06:09:17;;;;;;;1.08;0.32;;;20.00;99.90;;;;;;5144247;27;20426;-68
2023/07/11 06:11:46;;;;;;;0.00;0.00;;;20.10;99.90;;;;;;5146933;27;20478;-68
2023/07/11 06:14:12;;;;;;;0.00;0.00;;;20.20;99.90;;;;;;5146655;27;20113;-68
2023/07/11 06:16:39;;;;;;;0.52;0.45;;;20.20;99.90;;;;;;5137818;27;20137;-68
2023/07/11 06:19:05;;;;;;;3.40;0.20;;;20.20;99.90;;;;;;5146506;27;20068;-68
2023/07/11 06:21:31;;;;;;;0.00;0.00;;;20.30;99.90;;;;;;5141572;27;20482;-68
2023/07/11 06:23:56;;;;;;;0.00;0.00;;;20.30;99.90;;;;;;5148808;27;20046;-68
2023/07/11 06:26:22;;;;;;;0.20;0.20;;;20.40;99.90;;;;;;5147751;27;20047;-68
2023/07/11 06:28:48;;;;;;;0.00;0.00;;;20.40;99.90;;;;;;5153408;27;20382;-68
2023/07/11 06:31:15;;;;;;;0.00;0.00;;;20.40;99.90;;;;;;5146449;27;20081;-68
2023/07/11 06:33:40;;;;;;;0.00;0.00;;;20.40;99.90;;;;;;5120424;27;20664;-69
2023/07/11 06:36:07;;;;;;;0.20;0.20;;;20.40;99.90;;;;;;5128227;27;20080;-69
2023/07/11 06:38:33;;;;;;;0.10;0.10;;;20.50;99.90;;;;;;5125429;27;20043;-69
2023/07/11 06:40:59;;;;;;;0.00;0.00;;;20.60;99.90;;;;;;5127935;27;20406;-69
2023/07/11 06:43:26;;;;;;;1.85;0.15;;;20.70;99.90;;;;;;5131263;27;20054;-69
2023/07/11 06:45:53;;;;;;;0.13;0.13;;;20.80;99.90;;;;;;5130233;27;20042;-69
2023/07/11 06:48:20;;;;;;;0.00;0.00;;;20.90;99.90;;;;;;5128299;27;20526;-69
2023/07/11 06:50:50;;;;;;;0.80;0.60;;;21.00;99.90;;;;;;5132735;27;20041;-69
2023/07/11 06:53:16;;;;;;;3.35;0.52;;;21.00;99.90;;;;;;5132018;27;20176;-69
2023/07/11 06:55:49;;;;;;;0.65;0.45;;;21.00;99.90;;;;;;5123540;27;20125;-69
2023/07/11 06:58:15;;;;;;;;;;;21.10;99.90;;;;;;5129455;27;20039;-69
2023/07/11 07:00:42;;;;;;;0.10;0.10;;;21.10;99.90;;;;;;5128553;27;19991;-69
2023/07/11 07:03:11;;;;;;;3.13;1.83;;;21.10;99.90;;;;;;5126478;27;20046;-69
2023/07/11 07:05:37;;;;;;;0.10;0.10;;;21.20;99.90;;;;;;5127055;27;20406;-69
2023/07/11 07:08:03;;;;;;;0.03;0.03;;;21.20;99.90;;;;;;5129372;27;20039;-68
2023/07/11 07:10:29;;;;;;;1.45;0.65;;;21.30;99.90;;;;;;5122807;27;20040;-69
2023/07/11 07:12:54;;;;;;;0.55;0.43;;;21.30;99.90;;;;;;5126058;27;20033;-69
2023/07/11 07:15:20;;;;;;;0.10;0.10;;;21.30;99.90;;;;;;5124979;27;20107;-69
2023/07/11 07:17:45;;;;;;;0.10;0.10;;;21.40;99.90;;;;;;5117527;27;20544;-69
2023/07/11 07:20:12;;;;;;;0.00;0.00;;;21.40;99.90;;;;;;5128804;27;20038;-69
2023/07/11 07:22:37;;;;;;;0.05;0.05;;;21.50;99.90;;;;;;5127364;27;20082;-68
2023/07/11 07:25:04;;;;;;;2.13;0.68;;;21.60;99.90;;;;;;5122177;27;20031;-69
2023/07/11 07:27:30;;;;;;;0.10;0.10;;;21.50;99.90;;;;;;5123365;27;20047;-68
2023/07/11 07:29:55;;;;;;;0.08;0.08;;;21.50;99.90;;;;;;5126597;27;20062;-68
2023/07/11 07:32:21;;;;;;;0.10;0.10;;;21.50;99.90;;;;;;5127777;27;20050;-68
2023/07/11 07:34:47;;;;;;;0.00;0.00;;;21.50;99.90;;;;;;5126196;27;20418;-69
2023/07/11 07:37:13;;;;;;;0.05;0.05;;;21.60;99.90;;;;;;5127804;27;20036;-68
2023/07/11 07:39:39;;;;;;;1.17;0.82;;;21.60;99.90;;;;;;5122153;27;20092;-69
2023/07/11 07:42:05;;;;;;;0.00;0.00;;;21.60;99.90;;;;;;5131061;27;20039;-69
2023/07/11 07:44:31;;;;;;;0.32;0.20;;;21.70;99.90;;;;;;5130561;27;20390;-69
2023/07/11 07:46:56;;;;;;;0.08;0.08;;;21.80;99.90;;;;;;5122276;27;20047;-69
2023/07/11 07:49:22;;;;;;;0.45;0.45;;;21.90;99.90;;;;;;5120563;27;20387;-68
2023/07/11 07:51:47;;;;;;;0.38;0.38;;;21.90;99.90;;;;;;5128540;27;20047;-69
2023/07/11 07:54:13;;;;;;;0.47;0.47;;;22.10;99.90;;;;;;5128824;27;20078;-69
2023/07/11 07:56:39;;;;;;;0.10;0.10;;;22.20;99.90;;;;;;5130258;27;20451;-68
2023/07/11 07:59:04;;;;;;;0.00;0.00;;;22.30;99.90;;;;;;5128665;27;20052;-69
2023/07/11 08:01:31;;;;;;;0.00;0.00;;;22.30;99.90;;;;;;5129956;27;20039;-68
2023/07/11 08:03:57;;;;;;;0.50;0.50;;;22.30;99.90;;;;;;5119739;27;20051;-68
2023/07/11 08:06:22;;;;;;;0.38;0.38;;;22.40;99.90;;;;;;5120637;27;20107;-69
2023/07/11 08:08:49;;;;;;;0.10;0.10;;;22.50;99.90;;;;;;5124935;27;20394;-69
2023/07/11 08:11:17;;;;;;;0.10;0.10;;;22.70;99.90;;;;;;5125667;27;20534;-68
2023/07/11 08:13:43;;;;;;;0.00;0.00;;;22.80;99.90;;;;;;5125062;27;20039;-68
2023/07/11 08:16:09;;;;;;;0.22;0.22;;;22.90;99.90;;;;;;5119628;27;20038;-68
2023/07/11 08:18:35;;;;;;;0.00;0.00;;;23.00;99.90;;;;;;5125426;27;20383;-69
2023/07/11 08:21:00;;;;;;;1.35;0.73;;;23.00;99.90;;;;;;5126729;27;20042;-69
2023/07/11 08:23:27;;;;;;;0.28;0.28;;;23.10;99.90;;;;;;5123207;27;20134;-69
2023/07/11 08:25:54;;;;;;;1.17;0.82;;;23.10;99.90;;;;;;5124230;27;20044;-69
2023/07/11 08:28:19;;;;;;;0.20;0.20;;;23.20;99.90;;;;;;5118597;27;20470;-68
2023/07/11 08:30:45;;;;;;;0.20;0.20;;;23.30;99.90;;;;;;5127537;27;20051;-68
2023/07/11 08:33:11;;;;;;;0.00;0.00;;;23.30;99.90;;;;;;5135506;27;20674;-68
2023/07/11 08:35:37;;;;;;;4.38;1.38;;;23.30;99.90;;;;;;5141803;27;20043;-69
2023/07/11 08:38:03;;;;;;;0.00;0.00;;;23.40;99.90;;;;;;5149932;27;20413;-68
2023/07/11 08:40:38;;;;;;;1.95;0.40;;;23.40;99.90;;;;;;5144017;27;20035;-69
2023/07/11 08:43:05;;;;;;;0.00;0.00;;;23.60;99.90;;;;;;5149711;27;20066;-69
2023/07/11 08:45:42;;;;;;;1.80;0.30;;;23.70;99.90;;;;;;5144537;27;20043;-68
2023/07/11 08:48:14;;;;;;;0.00;0.00;;;23.70;99.90;;;;;;5124055;27;20043;-68
2023/07/11 08:51:10;;;;;;;0.50;0.50;;;23.70;99.90;;;;;;5135949;27;20174;-68
2023/07/11 08:53:47;;;;;;;0.00;0.00;;;23.80;99.90;;;;;;5145032;27;20092;-67
2023/07/11 08:56:24;;;;;;;0.00;0.00;;;23.90;99.90;;;;;;5138347;27;20074;-67
2023/07/11 08:58:51;;;;;;;12.52;0.75;;;23.90;99.90;;;;;;5148527;27;20086;-68
2023/07/11 09:01:33;;;;;;;0.47;0.47;;;23.90;99.90;;;;;;5140804;27;20051;-69
2023/07/11 09:04:00;;;;;;;1.27;1.02;;;24.00;99.90;;;;;;5147701;27;20049;-67
2023/07/11 09:06:35;;;;;;;0.10;0.10;;;24.10;99.90;;;;;;5135612;27;20056;-67
2023/07/11 09:09:01;;;;;;;0.00;0.00;;;24.20;99.90;;;;;;5143373;27;20383;-67
2023/07/11 09:11:30;;;;;;;0.40;0.40;;;24.30;99.90;;;;;;5146431;27;20080;-67
2023/07/11 09:14:04;;;;;;;0.30;0.30;;;24.40;99.90;;;;;;5123993;27;20133;-67
2023/07/11 09:16:35;;;;;;;0.65;0.60;;;24.40;99.90;;;;;;5131339;27;20114;-67
2023/07/11 09:19:43;;;;;;;11.20;1.45;;;24.50;99.90;;;;;;5140722;27;20075;-68
2023/07/11 09:22:36;;;;;;;0.10;0.10;;;24.50;99.90;;;;;;5127160;27;20047;-68
2023/07/11 09:25:15;;;;;;;;;;;24.40;99.90;;;;;;5142535;27;20459;-68
2023/07/11 09:27:44;;;;;;;0.10;0.10;;;24.50;99.90;;;;;;5140299;27;19919;-67
2023/07/11 09:30:33;;;;;;;0.13;0.13;;;24.50;99.90;;;;;;5126653;27;20114;-66
2023/07/11 09:33:20;;;;;;;0.08;0.08;;;24.70;99.90;;;;;;5137297;27;20717;-67
2023/07/11 09:35:46;;;;;;;0.00;0.00;;;24.70;99.90;;;;;;5139108;27;20054;-68
2023/07/11 09:38:33;;;;;;;0.30;0.30;;;24.70;99.90;;;;;;5124986;27;20050;-67
2023/07/11 09:41:10;;;;;;;0.10;0.10;;;24.70;99.90;;;;;;5143317;27;20486;-67
2023/07/11 09:43:36;;;;;;;0.20;0.17;;;24.80;99.90;;;;;;5150405;27;20413;-66
2023/07/11 09:46:01;;;;;;;0.20;0.20;;;24.80;99.90;;;;;;5139745;27;20046;-67
2023/07/11 09:48:34;;;;;;;0.10;0.10;;;24.90;99.90;;;;;;5143871;27;20521;-67
2023/07/11 09:50:59;;;;;;;0.30;0.30;;;25.20;99.90;;;;;;5142562;27;20043;-67
2023/07/11 09:53:28;;;;;;;0.70;0.65;;;25.60;99.90;;;;;;5131847;27;20512;-68
2023/07/11 09:56:03;;;;;;;5.38;1.02;;;25.90;99.90;;;;;;5133896;27;20059;-68
2023/07/11 09:58:33;;;;;;;0.10;0.10;;;26.10;99.90;;;;;;5141695;27;20102;-67
2023/07/11 10:01:04;;;;;;;0.28;0.20;;;26.30;99.90;;;;;;5146845;27;20049;-67
2023/07/11 10:03:35;;;;;;;0.32;0.32;;;26.50;99.90;;;;;;5149738;27;20066;-67
2023/07/11 10:06:04;;;;;;;0.00;0.00;;;26.50;99.90;;;;;;5146204;27;20088;-67
2023/07/11 10:08:34;;;;;;;0.00;0.00;;;26.70;99.90;;;;;;5143198;27;20043;-67
2023/07/11 10:11:06;;;;;;;0.10;0.10;;;26.70;99.90;;;;;;5141074;27;20031;-68
2023/07/11 10:13:32;;;;;;;0.00;0.00;;;26.70;99.90;;;;;;5142389;27;20039;-68
2023/07/11 10:15:59;;;;;;;0.15;0.15;;;26.40;99.90;;;;;;5147097;27;20070;-68
2023/07/11 10:18:30;;;;;;;0.15;0.15;;;26.10;99.90;;;;;;5140206;27;20046;-68
2023/07/11 10:21:06;;;;;;;0.10;0.10;;;26.10;99.90;;;;;;5143056;27;20043;-68
2023/07/11 10:23:34;;;;;;;0.57;0.57;;;25.90;99.90;;;;;;5140972;27;20448;-68
2023/07/11 10:26:09;;;;;;;0.00;0.00;;;25.70;99.90;;;;;;5147817;27;20393;-67
2023/07/11 10:28:39;;;;;;;0.10;0.05;;;25.60;99.90;;;;;;5140807;27;20505;-67
2023/07/11 10:31:19;;;;;;;0.52;0.52;;;25.60;99.90;;;;;;5148071;27;20046;-67
2023/07/11 10:33:53;;;;;;;0.00;0.00;;;25.60;99.90;;;;;;5135341;27;20047;-68
2023/07/11 10:36:26;;;;;;;0.00;0.00;;;25.50;99.90;;;;;;5137851;27;20054;-68
2023/07/11 10:38:57;;;;;;;2.13;1.55;;;25.50;99.90;;;;;;5137396;27;20039;-67
2023/07/11 10:41:29;;;;;;;0.10;0.10;;;25.70;99.90;;;;;;5148175;27;20126;-67
2023/07/11 10:43:55;;;;;;;0.32;0.32;;;25.80;99.90;;;;;;5144840;27;20453;-68
2023/07/11 10:46:41;;;;;;;13.43;0.50;;;25.70;99.90;;;;;;5141563;27;20039;-67
2023/07/11 10:49:14;;;;;;;0.10;0.10;;;25.50;99.90;;;;;;5141790;27;20058;-67
2023/07/11 10:51:49;;;;;;;0.55;0.30;;;25.50;99.90;;;;;;5147316;27;20038;-67
2023/07/11 10:54:24;;;;;;;0.30;0.20;;;25.70;99.90;;;;;;5119633;27;20112;-68
2023/07/11 10:57:02;;;;;;;0.75;0.38;;;25.90;99.90;;;;;;5132290;27;20040;-68
2023/07/11 10:59:31;;;;;;;0.08;0.08;;;25.90;99.90;;;;;;5133871;27;20042;-68
2023/07/11 11:02:14;;;;;;;0.00;0.00;;;25.90;99.90;;;;;;5137111;27;20107;-68
2023/07/11 11:05:07;;;;;;;0.08;0.05;;;25.80;99.90;;;;;;5147898;27;20038;-68
2023/07/11 11:07:47;;;;;;;0.60;0.43;;;25.80;99.90;;;;;;5144123;27;20442;-68
2023/07/11 11:10:34;;;;;;;0.13;0.13;;;25.80;99.90;;;;;;5143768;27;20114;-68
2023/07/11 11:13:13;;;;;;;0.00;0.00;;;25.80;99.90;;;;;;5142432;27;20042;-68
2023/07/11 11:16:01;;;;;;;0.40;0.35;;;26.00;99.90;;;;;;5148281;27;20042;-67
2023/07/11 11:18:43;;;;;;;0.00;0.00;;;26.10;99.90;;;;;;5124845;27;20046;-67
2023/07/11 11:21:16;;;;;;;0.00;0.00;;;26.00;99.90;;;;;;5127176;27;20046;-68
2023/07/11 11:23:54;;;;;;;;;;;26.00;99.90;;;;;;5129266;27;20051;-67
2023/07/11 11:26:41;;;;;;;0.10;0.10;;;26.20;99.90;;;;;;5125683;27;19945;-67
2023/07/11 11:29:41;;;;;;;1.52;1.17;;;26.30;99.90;;;;;;5151056;27;20053;-67
2023/07/11 11:32:24;;;;;;;1.10;0.10;;;26.30;99.90;;;;;;5148412;27;20583;-68
2023/07/11 11:34:50;;;;;;;0.90;0.20;;;26.10;99.90;;;;;;5132189;27;20047;-67
2023/07/11 11:37:19;;;;;;;2.03;1.63;;;26.20;99.90;;;;;;5141697;27;20038;-67
2023/07/11 11:40:14;;;;;;;0.00;0.00;;;26.50;99.90;;;;;;5139726;27;20049;-67
2023/07/11 11:42:43;;;;;;;0.10;0.10;;;26.60;99.90;;;;;;5150592;27;20034;-67
2023/07/11 11:45:22;;;;;;;1.00;0.45;;;26.90;99.90;;;;;;5151709;27;20041;-67
2023/07/11 11:47:53;;;;;;;0.00;0.00;;;26.80;99.90;;;;;;5125059;27;20086;-67
2023/07/11 11:50:22;;;;;;;0.00;0.00;;;26.70;99.90;;;;;;5127884;27;20152;-68
2023/07/11 11:52:56;;;;;;;0.65;0.10;;;26.80;99.90;;;;;;5145135;27;20405;-69
2023/07/11 11:55:36;;;;;;;0.00;0.00;;;26.90;99.90;;;;;;5130156;27;20133;-68
2023/07/11 11:58:03;;;;;;;1.38;0.08;;;26.90;99.90;;;;;;5147640;27;20054;-68
2023/07/11 12:00:37;;;;;;;0.17;0.17;;;27.00;99.90;;;;;;5145671;27;20043;-68
2023/07/11 12:03:04;;;;;;;0.00;0.00;;;27.10;99.90;;;;;;5144414;27;20046;-68
2023/07/11 12:05:29;;;;;;;0.00;0.00;;;27.30;99.90;;;;;;5145900;27;20489;-68
2023/07/11 12:08:28;;;;;;;0.57;0.28;;;27.10;99.90;;;;;;5149280;27;20075;-68
2023/07/11 12:11:30;;;;;;;0.30;0.17;;;27.10;99.90;;;;;;5145186;27;20126;-67
2023/07/11 12:14:19;;;;;;;0.00;0.00;;;27.30;99.90;;;;;;5131273;27;20513;-68
2023/07/11 12:16:48;;;;;;;2.70;2.50;;;27.50;99.90;;;;;;5146800;27;20053;-68
2023/07/11 12:19:33;;;;;;;0.38;0.38;;;27.40;99.90;;;;;;5142604;27;20421;-67
2023/07/11 12:22:04;;;;;;;0.15;0.15;;;27.50;99.90;;;;;;5145295;27;20352;-69
2023/07/11 12:24:32;;;;;;;0.00;0.00;;;27.80;99.90;;;;;;5134600;27;20119;-68
2023/07/11 12:27:29;;;;;;;0.00;0.00;;;27.90;99.90;;;;;;5143611;27;20026;-69
2023/07/11 12:29:55;;;;;;;1.25;0.30;;;27.90;99.90;;;;;;5105978;27;20047;-69
2023/07/11 12:32:33;;;;;;;0.10;0.10;;;28.00;99.90;;;;;;5148023;27;20042;-68
2023/07/11 12:35:05;;;;;;;0.00;0.00;;;27.70;99.90;;;;;;5146091;27;20087;-68
2023/07/11 12:37:36;;;;;;;0.00;0.00;;;27.80;99.90;;;;;;5118905;27;20043;-67
2023/07/11 12:40:16;;;;;;;0.43;0.43;;;27.40;99.90;;;;;;5149466;27;20039;-67
2023/07/11 12:42:53;;;;;;;0.47;0.45;;;27.80;99.90;;;;;;5138452;27;20178;-65
2023/07/11 12:45:32;;;;;;;0.10;0.10;;;27.60;99.90;;;;;;5135549;27;20049;-66
2023/07/11 12:48:11;;;;;;;0.00;0.00;;;27.50;99.90;;;;;;5139774;27;20490;-67
2023/07/11 12:50:45;;;;;;;0.22;0.20;;;27.10;99.90;;;;;;5142669;27;20055;-67
2023/07/11 12:53:11;;;;;;;0.00;0.00;;;27.00;99.90;;;;;;5146282;27;20135;-67
2023/07/11 12:55:37;;;;;;;0.00;0.00;;;26.60;99.90;;;;;;5139223;27;20473;-67
2023/07/11 12:58:03;;;;;;;0.20;0.20;;;26.80;99.90;;;;;;5137325;27;20100;-68
2023/07/11 13:00:31;;;;;;;0.00;0.00;;;27.20;99.90;;;;;;5148685;27;20042;-67